Lapao, Brazil
Current Conditions -  °F | °C
As of 4:00 PM on Thursday 23 Oct 2014 (Local Time) from SBPL Reporting Station
Few Clouds Few Clouds  
Wind Chill: 95°   Ceiling: Unl
Heat Index: 95°   Visibility: 6mi
Dew Point: 57°   Wind: 7mph
Humidity: 28%   Direction: 150°SSE
Pressure: 29.88"   Gusts: NA
Location:  11.38°S, 41.83°W
Report Text: SBPL 231900Z 15006KT 9999 FEW040 35/14 Q1012
Loading
Personal Weather Stations






























Interactive Weather Map
Tropical Storm Tracking
New forecast layout! Learn more

10-Day Weather Forecast

Advertisements
Track Severe Weather on mobile